createdAt,value
2023-03-17T10:54:51.349Z,16.23
2023-03-17T10:57:20.538Z,12.65
2023-03-17T10:59:53.435Z,11.65
2023-03-17T11:02:26.761Z,9.90
2023-03-17T11:04:59.776Z,8.98
2023-03-17T11:07:31.292Z,8.27
2023-03-17T11:10:04.337Z,7.30
2023-03-17T11:12:39.373Z,13.15
2023-03-17T11:15:12.084Z,9.10
2023-03-17T11:17:47.794Z,7.32
2023-03-17T11:20:31.822Z,6.57
2023-03-17T11:23:05.913Z,5.88
2023-03-17T11:25:40.501Z,4.80
2023-03-17T11:28:19.965Z,4.72
2023-03-17T11:31:01.608Z,4.63
2023-03-17T11:33:36.575Z,4.03
2023-03-17T11:36:17.578Z,4.88
2023-03-17T11:38:58.256Z,3.90
2023-03-17T11:41:54.818Z,3.67
2023-03-17T11:44:43.358Z,3.40
2023-03-17T11:47:27.879Z,3.15
2023-03-17T11:50:04.155Z,2.88
2023-03-17T11:52:39.208Z,2.45
2023-03-17T11:55:17.629Z,2.95
2023-03-17T11:57:53.444Z,2.67
2023-03-17T12:00:27.631Z,2.92
2023-03-17T12:03:02.039Z,1.75
2023-03-17T12:05:31.633Z,1.92
2023-03-17T12:08:02.509Z,1.90
2023-03-17T12:10:36.417Z,2.28
2023-03-17T12:13:12.582Z,1.77
2023-03-17T12:15:44.652Z,1.50
2023-03-17T12:18:17.210Z,2.47
2023-03-17T12:20:52.654Z,2.20
2023-03-17T12:23:30.140Z,2.40
2023-03-17T12:26:05.141Z,1.73
2023-03-17T12:28:42.358Z,1.77
2023-03-17T12:31:14.087Z,1.70
2023-03-17T12:33:51.899Z,1.73
2023-03-17T12:36:20.573Z,1.85
2023-03-17T12:38:54.945Z,1.50
2023-03-17T12:41:44.032Z,1.42
2023-03-17T12:44:27.674Z,1.73
2023-03-17T12:47:11.199Z,1.33
2023-03-17T12:50:05.805Z,1.42
2023-03-17T12:52:53.038Z,1.40
2023-03-17T12:55:26.943Z,1.42
2023-03-17T12:58:02.264Z,1.45
2023-03-17T13:00:33.315Z,1.50
2023-03-17T13:03:20.220Z,1.13
2023-03-17T13:05:51.863Z,1.10
2023-03-17T13:08:28.148Z,1.48
2023-03-17T13:11:18.616Z,1.10
2023-03-17T13:14:08.588Z,0.98
2023-03-17T13:16:41.015Z,1.00
2023-03-17T13:19:16.395Z,0.90
2023-03-17T13:21:52.762Z,0.98
2023-03-17T13:24:24.261Z,1.00
2023-03-17T13:26:58.426Z,1.00
2023-03-17T13:29:47.743Z,0.93
2023-03-17T13:32:39.241Z,1.02
2023-03-17T13:35:37.828Z,0.93
2023-03-17T13:38:41.308Z,1.15
2023-03-17T13:41:28.016Z,1.30
2023-03-17T13:44:15.412Z,1.25
2023-03-17T13:46:46.925Z,1.30
2023-03-17T13:49:32.112Z,1.52
2023-03-17T13:52:08.648Z,1.10
2023-03-17T13:54:42.793Z,0.90
2023-03-17T13:57:28.559Z,1.20
2023-03-17T14:00:01.143Z,0.80
2023-03-17T14:02:32.913Z,1.05
2023-03-17T14:05:06.183Z,0.70
2023-03-17T14:07:45.698Z,0.80
2023-03-17T14:10:18.042Z,1.38
2023-03-17T14:12:51.964Z,1.00
2023-03-17T14:15:25.640Z,0.90
2023-03-17T14:17:57.483Z,1.33
2023-03-17T14:20:28.350Z,1.05
2023-03-17T14:22:58.311Z,1.35
2023-03-17T14:25:31.776Z,1.27
2023-03-17T14:28:00.537Z,1.20
2023-03-17T14:30:30.685Z,0.90
2023-03-17T14:33:04.472Z,1.10
2023-03-17T14:35:35.999Z,1.52
2023-03-17T14:38:04.368Z,6.30
2023-03-17T14:40:36.851Z,4.30
2023-03-17T14:43:05.328Z,3.42
2023-03-17T14:45:46.508Z,2.50
2023-03-17T14:48:16.510Z,2.25
2023-03-17T14:50:53.072Z,2.13
2023-03-17T14:53:24.045Z,1.98
2023-03-17T14:55:53.410Z,1.92
2023-03-17T14:58:25.842Z,1.58
2023-03-17T15:00:59.112Z,1.52
2023-03-17T15:03:31.646Z,1.17
2023-03-17T15:06:22.526Z,1.75
2023-03-17T15:08:54.011Z,1.05
2023-03-17T15:11:25.388Z,1.17
2023-03-17T15:13:58.125Z,1.25
2023-03-17T15:16:29.507Z,1.38
2023-03-17T15:19:07.044Z,1.50
2023-03-17T15:21:41.783Z,3.05
2023-03-17T15:24:34.049Z,2.70
2023-03-17T15:27:04.279Z,2.17
2023-03-17T15:29:32.205Z,2.30
2023-03-17T15:32:11.340Z,1.83
2023-03-17T15:34:39.451Z,2.38
2023-03-17T15:37:16.367Z,2.05
2023-03-17T15:39:44.632Z,1.52
2023-03-17T15:42:12.601Z,1.80
2023-03-17T15:44:40.659Z,1.88
2023-03-17T15:47:12.781Z,1.77
2023-03-17T15:49:40.659Z,1.30
2023-03-17T15:52:16.113Z,1.17
2023-03-17T15:54:44.722Z,1.80
2023-03-17T15:57:13.635Z,1.48
2023-03-17T15:59:42.092Z,1.63
2023-03-17T16:02:29.002Z,1.63
2023-03-17T16:04:57.405Z,2.28
2023-03-17T16:07:26.832Z,1.17
2023-03-17T16:09:54.958Z,1.42
2023-03-17T16:12:22.930Z,1.40
2023-03-17T16:14:51.513Z,1.30
2023-03-17T16:17:26.986Z,1.35
2023-03-17T16:19:55.901Z,1.45
2023-03-17T16:22:40.582Z,1.30
2023-03-17T16:25:19.832Z,1.33
2023-03-17T16:27:48.436Z,1.33
2023-03-17T16:30:17.984Z,1.50
2023-03-17T16:32:46.169Z,1.02
2023-03-17T16:35:19.203Z,1.08
2023-03-17T16:37:49.137Z,1.73
2023-03-17T16:40:22.813Z,1.42
2023-03-17T16:42:50.945Z,1.20
2023-03-17T16:45:23.464Z,1.13
2023-03-17T16:47:51.483Z,0.88
2023-03-17T16:50:22.530Z,1.23
2023-03-17T16:52:52.251Z,1.20
2023-03-17T16:55:21.777Z,1.23
2023-03-17T16:57:51.852Z,1.50
2023-03-17T17:00:22.273Z,1.20
2023-03-17T17:02:50.632Z,1.20
2023-03-17T17:05:21.269Z,1.33
2023-03-17T17:07:49.870Z,1.25
2023-03-17T17:10:21.368Z,1.80
2023-03-17T17:12:50.345Z,1.25
2023-03-17T17:15:20.159Z,1.20
2023-03-17T17:17:51.768Z,1.40
2023-03-17T17:20:22.610Z,1.73
2023-03-17T17:22:51.132Z,1.42
2023-03-17T17:25:20.468Z,1.00
2023-03-17T17:27:49.556Z,1.40
2023-03-17T17:30:19.802Z,1.38
2023-03-17T17:32:48.520Z,1.63
2023-03-17T17:35:17.668Z,1.50
2023-03-17T17:37:46.060Z,1.40
2023-03-17T17:40:17.025Z,1.05
2023-03-17T17:42:46.983Z,1.60
2023-03-17T17:45:15.808Z,1.63
2023-03-17T17:47:44.402Z,1.75
2023-03-17T17:50:17.908Z,1.48
2023-03-17T17:52:47.619Z,2.03
2023-03-17T17:55:16.234Z,1.58
2023-03-17T17:57:44.258Z,1.35
2023-03-17T18:00:17.221Z,1.50
2023-03-17T18:02:45.830Z,1.48
2023-03-17T18:05:14.393Z,1.50
2023-03-17T18:07:42.465Z,1.40
2023-03-17T18:10:16.991Z,1.50
2023-03-17T18:12:45.059Z,1.42
2023-03-17T18:15:14.549Z,1.20
2023-03-17T18:17:43.133Z,1.48
2023-03-17T18:20:13.599Z,1.40
2023-03-17T18:22:41.714Z,1.58
2023-03-17T18:25:11.153Z,2.03
2023-03-17T18:27:39.995Z,1.42
2023-03-17T18:30:11.875Z,2.03
2023-03-17T18:32:43.961Z,1.45
2023-03-17T18:35:15.944Z,1.55
2023-03-17T18:37:45.169Z,1.85
2023-03-17T18:40:18.441Z,1.95
2023-03-17T18:42:47.280Z,1.90
2023-03-17T18:45:15.925Z,2.25
2023-03-17T18:47:45.468Z,1.55
2023-03-17T18:50:15.479Z,1.52
2023-03-17T18:52:44.855Z,1.80
2023-03-17T18:55:14.341Z,1.83
2023-03-17T18:57:44.577Z,1.50
2023-03-17T19:00:16.355Z,1.75
2023-03-17T19:02:46.490Z,1.80
2023-03-17T19:05:15.461Z,2.17
2023-03-17T19:07:43.558Z,1.83
2023-03-17T19:10:14.067Z,1.80
2023-03-17T19:12:42.464Z,2.15
2023-03-17T19:15:12.467Z,2.15
2023-03-17T19:17:41.383Z,1.73
2023-03-17T19:20:13.169Z,2.00
2023-03-17T19:22:41.688Z,1.95
2023-03-17T19:25:10.666Z,2.00
2023-03-17T19:27:38.820Z,1.92
2023-03-17T19:30:08.798Z,2.33
2023-03-17T19:32:36.910Z,2.78
2023-03-17T19:35:05.769Z,2.20
2023-03-17T19:37:36.050Z,2.67
2023-03-17T19:40:06.283Z,2.40
2023-03-17T19:42:34.366Z,2.50
2023-03-17T19:45:02.491Z,2.72
2023-03-17T19:47:30.683Z,2.30
2023-03-17T19:49:58.799Z,2.30
2023-03-17T19:52:26.817Z,2.45
2023-03-17T19:54:56.392Z,2.10
2023-03-17T19:57:24.390Z,2.60
2023-03-17T19:59:53.105Z,2.50
2023-03-17T20:02:21.562Z,2.25
2023-03-17T20:04:49.684Z,2.42
2023-03-17T20:07:17.860Z,2.33
2023-03-17T20:09:47.969Z,2.50
2023-03-17T20:12:17.473Z,3.00
2023-03-17T20:14:45.671Z,3.03
2023-03-17T20:17:15.368Z,2.80
2023-03-17T20:19:43.303Z,2.90
2023-03-17T20:22:11.666Z,3.50
2023-03-17T20:24:39.769Z,2.85
2023-03-17T20:27:08.453Z,2.80
2023-03-17T20:29:38.393Z,3.22
2023-03-17T20:32:06.599Z,3.15
2023-03-17T20:34:34.776Z,2.65
2023-03-17T20:37:03.853Z,2.80
2023-03-17T20:39:32.470Z,3.15
2023-03-17T20:42:01.565Z,2.92
2023-03-17T20:44:29.503Z,3.55
2023-03-17T20:46:59.067Z,2.80
2023-03-17T20:49:27.773Z,3.15
2023-03-17T20:51:56.133Z,3.53
2023-03-17T20:54:24.308Z,3.50
2023-03-17T20:56:53.722Z,2.95
2023-03-17T20:59:21.761Z,3.25
2023-03-17T21:01:50.006Z,2.85
2023-03-17T21:04:20.947Z,2.72
2023-03-17T21:06:49.798Z,3.10
2023-03-17T21:09:17.756Z,2.95
2023-03-17T21:11:45.791Z,3.05
2023-03-17T21:14:14.551Z,3.70
2023-03-17T21:16:45.091Z,3.40
2023-03-17T21:19:15.374Z,3.20
2023-03-17T21:21:45.707Z,3.33
2023-03-17T21:24:25.157Z,2.95
2023-03-17T21:26:53.261Z,4.03
2023-03-17T21:29:22.012Z,3.47
2023-03-17T21:31:50.060Z,2.95
2023-03-17T21:34:18.066Z,3.42
2023-03-17T21:36:47.549Z,3.55
2023-03-17T21:39:16.255Z,3.55
2023-03-17T21:41:46.194Z,3.70
2023-03-17T21:44:15.958Z,3.20
2023-03-17T21:46:44.463Z,3.10
2023-03-17T21:49:13.215Z,3.17
2023-03-17T21:51:41.191Z,3.40
2023-03-17T21:54:10.645Z,3.00
2023-03-17T21:56:39.676Z,3.22
2023-03-17T21:59:10.838Z,3.75
2023-03-17T22:01:39.565Z,3.50
2023-03-17T22:04:07.970Z,3.20
2023-03-17T22:06:36.188Z,3.65
2023-03-17T22:09:05.334Z,3.70
2023-03-17T22:11:34.763Z,3.83
2023-03-17T22:14:02.924Z,3.15
2023-03-17T22:16:31.183Z,3.78
2023-03-17T22:18:59.232Z,3.35
2023-03-17T22:21:28.985Z,3.80
2023-03-17T22:23:57.650Z,3.60
2023-03-17T22:26:25.809Z,3.38
2023-03-17T22:28:55.743Z,3.63
2023-03-17T22:31:25.806Z,3.78
2023-03-17T22:33:55.288Z,3.80
2023-03-17T22:36:24.504Z,3.38
2023-03-17T22:38:53.350Z,3.67
2023-03-17T22:41:27.447Z,3.45
2023-03-17T22:43:57.567Z,3.45
2023-03-17T22:46:26.309Z,3.20
2023-03-17T22:48:54.348Z,3.47
2023-03-17T22:51:24.461Z,3.20
2023-03-17T22:53:53.494Z,3.28
2023-03-17T22:56:21.598Z,3.45
2023-03-17T22:58:50.167Z,3.13
2023-03-17T23:01:20.676Z,3.15
2023-03-17T23:03:48.881Z,2.92
2023-03-17T23:06:17.757Z,3.45
2023-03-17T23:08:46.557Z,3.25
2023-03-17T23:11:17.193Z,2.97
2023-03-17T23:13:45.914Z,3.50
2023-03-17T23:16:14.725Z,3.63
2023-03-17T23:18:46.882Z,3.25
2023-03-17T23:21:22.645Z,3.47
2023-03-17T23:23:51.195Z,3.28
2023-03-17T23:26:19.230Z,3.60
2023-03-17T23:28:47.576Z,3.95
2023-03-17T23:31:16.738Z,3.58
2023-03-17T23:33:46.560Z,3.95
2023-03-17T23:36:15.230Z,3.60
2023-03-17T23:38:44.014Z,3.53
2023-03-17T23:41:13.449Z,3.67
2023-03-17T23:43:41.669Z,3.80
2023-03-17T23:46:09.838Z,3.08
2023-03-17T23:48:40.344Z,3.47
2023-03-17T23:51:12.399Z,3.75
2023-03-17T23:53:41.695Z,4.13
2023-03-17T23:56:12.931Z,3.63
2023-03-17T23:58:42.474Z,3.28
